createdAt,value
2023-06-17T00:00:35.950Z,15.90
2023-06-17T00:02:40.227Z,15.80
2023-06-17T00:04:43.149Z,15.80
2023-06-17T00:06:46.029Z,15.80
2023-06-17T00:08:48.929Z,15.80
2023-06-17T00:10:51.735Z,15.80
2023-06-17T00:12:55.507Z,15.70
2023-06-17T00:14:58.326Z,15.70
2023-06-17T00:17:03.123Z,15.60
2023-06-17T00:19:07.394Z,15.60
2023-06-17T00:21:10.939Z,15.60
2023-06-17T00:23:19.220Z,15.50
2023-06-17T00:25:22.200Z,15.50
2023-06-17T00:27:25.034Z,15.50
2023-06-17T00:29:27.804Z,15.40
2023-06-17T00:31:30.603Z,15.40
2023-06-17T00:33:33.438Z,15.40
2023-06-17T00:35:37.585Z,15.40
2023-06-17T00:37:40.518Z,15.30
2023-06-17T00:39:43.322Z,15.30
2023-06-17T00:41:46.180Z,15.20
2023-06-17T00:43:49.135Z,15.20
2023-06-17T00:45:52.607Z,15.20
2023-06-17T00:47:55.737Z,15.10
2023-06-17T00:49:59.249Z,15.10
2023-06-17T00:54:14.823Z,15.10
2023-06-17T00:56:18.596Z,15.00
2023-06-17T00:58:21.550Z,15.00
2023-06-17T01:00:24.434Z,15.00
2023-06-17T01:02:29.081Z,15.00
2023-06-17T01:04:32.764Z,15.00
2023-06-17T01:06:41.771Z,14.90
2023-06-17T01:08:50.326Z,14.80
2023-06-17T01:10:59.248Z,14.80
2023-06-17T01:13:04.077Z,14.70
2023-06-17T01:15:09.464Z,14.70
2023-06-17T01:17:13.894Z,14.70
2023-06-17T01:19:22.260Z,14.70
2023-06-17T01:21:26.968Z,14.70
2023-06-17T01:23:34.171Z,14.70
2023-06-17T01:25:40.729Z,14.70
2023-06-17T01:27:43.543Z,14.70
2023-06-17T01:29:49.544Z,14.60
2023-06-17T01:31:52.885Z,14.50
2023-06-17T01:33:58.948Z,14.50
2023-06-17T01:36:14.656Z,14.50
2023-06-17T01:38:22.967Z,14.40
2023-06-17T01:40:26.719Z,14.30
2023-06-17T01:42:36.476Z,14.30
2023-06-17T01:44:40.878Z,14.20
2023-06-17T01:46:44.879Z,14.20
2023-06-17T01:48:47.812Z,14.10
2023-06-17T01:50:50.898Z,14.10
2023-06-17T01:52:53.971Z,14.00
2023-06-17T01:54:57.325Z,14.00
2023-06-17T01:57:01.685Z,14.00
2023-06-17T01:59:05.933Z,14.00
2023-06-17T02:01:08.971Z,14.00
2023-06-17T02:03:12.018Z,13.90
2023-06-17T02:05:18.100Z,13.90
2023-06-17T02:07:26.148Z,13.90
2023-06-17T02:09:28.922Z,13.80
2023-06-17T02:11:31.763Z,13.70
2023-06-17T02:13:34.588Z,13.70
2023-06-17T02:15:39.744Z,13.70
2023-06-17T02:17:43.934Z,13.60
2023-06-17T02:19:46.772Z,13.60
2023-06-17T02:21:49.644Z,13.50
2023-06-17T02:23:53.025Z,13.50
2023-06-17T02:25:57.591Z,13.50
2023-06-17T02:28:00.825Z,13.40
2023-06-17T02:30:03.787Z,13.40
2023-06-17T02:32:10.746Z,13.30
2023-06-17T02:34:13.855Z,13.30
2023-06-17T02:36:16.749Z,13.20
2023-06-17T02:38:19.762Z,13.20
2023-06-17T02:40:23.079Z,13.20
2023-06-17T02:42:26.086Z,13.20
2023-06-17T02:44:28.893Z,13.20
2023-06-17T02:46:31.837Z,13.10
2023-06-17T02:48:36.815Z,13.10
2023-06-17T02:50:39.641Z,13.10
2023-06-17T02:52:42.443Z,13.00
2023-06-17T02:54:45.385Z,13.00
2023-06-17T02:56:48.260Z,13.00
2023-06-17T02:58:52.498Z,12.90
2023-06-17T03:00:55.830Z,13.00
2023-06-17T03:02:58.995Z,13.00
2023-06-17T03:05:04.293Z,13.00
2023-06-17T03:07:08.072Z,13.00
2023-06-17T03:09:11.203Z,13.00
2023-06-17T03:11:14.056Z,13.00
2023-06-17T03:13:16.863Z,13.00
2023-06-17T03:15:20.531Z,13.00
2023-06-17T03:17:23.479Z,12.90
2023-06-17T03:19:26.729Z,12.90
2023-06-17T03:21:32.133Z,12.90
2023-06-17T03:23:34.946Z,12.80
2023-06-17T03:25:37.733Z,12.80
2023-06-17T03:27:40.741Z,12.80
2023-06-17T03:29:43.486Z,12.80
2023-06-17T03:31:46.420Z,12.80
2023-06-17T03:33:50.709Z,12.80
2023-06-17T03:35:53.450Z,12.80
2023-06-17T03:37:57.661Z,12.80
2023-06-17T03:40:00.449Z,12.80
2023-06-17T03:42:03.308Z,12.80
2023-06-17T03:44:06.387Z,12.80
2023-06-17T03:46:09.136Z,12.90
2023-06-17T03:48:11.895Z,12.90
2023-06-17T03:50:14.995Z,12.90
2023-06-17T03:52:17.812Z,12.90
2023-06-17T03:54:22.010Z,12.90
2023-06-17T03:56:24.858Z,12.90
2023-06-17T03:58:29.230Z,12.90
2023-06-17T04:00:32.156Z,12.90
2023-06-17T04:02:35.242Z,12.90
2023-06-17T04:04:41.238Z,12.90
2023-06-17T04:06:44.169Z,12.90
2023-06-17T04:08:48.037Z,13.00
2023-06-17T04:10:52.303Z,13.00
2023-06-17T04:12:55.238Z,13.00
2023-06-17T04:14:58.160Z,13.10
2023-06-17T04:17:01.294Z,13.10
2023-06-17T04:19:04.165Z,13.10
2023-06-17T04:21:07.181Z,13.20
2023-06-17T04:23:09.943Z,13.20
2023-06-17T04:25:16.449Z,13.30
2023-06-17T04:27:20.702Z,13.30
2023-06-17T04:29:23.470Z,13.40
2023-06-17T04:31:28.282Z,13.40
2023-06-17T04:33:32.383Z,13.50
2023-06-17T04:35:36.413Z,13.60
2023-06-17T04:37:41.379Z,13.60
2023-06-17T04:39:44.614Z,13.70
2023-06-17T04:41:50.036Z,13.80
2023-06-17T04:43:56.859Z,13.80
2023-06-17T04:45:59.886Z,13.90
2023-06-17T04:48:07.368Z,14.00
2023-06-17T04:50:11.686Z,14.00
2023-06-17T04:52:15.048Z,14.10
2023-06-17T04:54:19.931Z,14.20
2023-06-17T04:56:28.025Z,14.20
2023-06-17T04:58:31.166Z,14.30
2023-06-17T05:00:35.706Z,14.30
2023-06-17T05:02:39.124Z,14.40
2023-06-17T05:04:42.458Z,14.50
2023-06-17T05:06:46.281Z,14.50
2023-06-17T05:08:49.305Z,14.60
2023-06-17T05:10:53.477Z,14.60
2023-06-17T05:12:56.468Z,14.70
2023-06-17T05:14:59.305Z,14.70
2023-06-17T05:17:03.525Z,14.80
2023-06-17T05:19:06.294Z,14.90
2023-06-17T05:21:09.078Z,14.90
2023-06-17T05:23:11.995Z,15.10
2023-06-17T05:25:14.817Z,15.20
2023-06-17T05:27:17.651Z,15.30
2023-06-17T05:29:20.503Z,15.40
2023-06-17T05:31:23.657Z,15.50
2023-06-17T05:33:27.834Z,15.70
2023-06-17T05:35:30.726Z,15.80
2023-06-17T05:37:33.921Z,15.90
2023-06-17T05:39:36.707Z,16.00
2023-06-17T05:41:39.530Z,16.20
2023-06-17T05:43:42.280Z,16.40
2023-06-17T05:45:45.541Z,16.50
2023-06-17T05:47:48.362Z,16.60
2023-06-17T05:49:52.544Z,16.80
2023-06-17T05:51:55.278Z,16.90
2023-06-17T05:53:58.158Z,17.10
2023-06-17T05:56:01.112Z,17.30
2023-06-17T05:58:03.940Z,17.50
2023-06-17T06:00:09.390Z,17.60
2023-06-17T06:02:12.358Z,17.70
2023-06-17T06:04:15.534Z,17.90
2023-06-17T06:06:19.824Z,18.10
2023-06-17T06:08:24.698Z,18.20
2023-06-17T06:10:30.441Z,18.40
2023-06-17T06:12:33.662Z,18.50
2023-06-17T06:14:36.433Z,18.60
2023-06-17T06:16:39.322Z,18.80
2023-06-17T06:18:42.482Z,18.90
2023-06-17T06:20:45.388Z,19.10
2023-06-17T06:22:49.935Z,19.20
2023-06-17T06:24:53.386Z,19.40
2023-06-17T06:26:56.274Z,19.50
2023-06-17T06:28:59.076Z,19.70
2023-06-17T06:31:03.076Z,19.80
2023-06-17T06:33:06.100Z,19.90
2023-06-17T06:35:09.497Z,20.00
2023-06-17T06:37:12.343Z,20.10
2023-06-17T06:39:17.744Z,20.10
2023-06-17T06:41:20.871Z,20.30
2023-06-17T06:43:24.557Z,20.40
2023-06-17T06:45:27.456Z,20.50
2023-06-17T06:47:30.498Z,20.50
2023-06-17T06:49:34.340Z,20.50
2023-06-17T06:51:37.565Z,20.60
2023-06-17T06:53:40.616Z,20.70
2023-06-17T06:55:44.963Z,20.80
2023-06-17T06:57:47.884Z,21.00
2023-06-17T06:59:52.564Z,21.10
2023-06-17T07:01:55.766Z,21.20
2023-06-17T07:03:58.693Z,21.30
2023-06-17T07:06:01.698Z,21.40
2023-06-17T07:08:04.723Z,21.50
2023-06-17T07:10:08.596Z,21.50
2023-06-17T07:12:13.552Z,21.60
2023-06-17T07:14:16.461Z,21.70
2023-06-17T07:16:19.281Z,21.70
2023-06-17T07:18:22.114Z,21.90
2023-06-17T07:20:25.162Z,21.90
2023-06-17T07:22:28.127Z,22.10
2023-06-17T07:24:31.037Z,22.20
2023-06-17T07:26:33.870Z,22.20
2023-06-17T07:28:38.046Z,22.30
2023-06-17T07:30:42.242Z,22.40
2023-06-17T07:32:45.618Z,22.50
2023-06-17T07:34:49.382Z,22.60
2023-06-17T07:36:53.682Z,22.70
2023-06-17T07:38:56.782Z,22.80
2023-06-17T07:40:59.578Z,22.90
2023-06-17T07:43:02.410Z,22.90
2023-06-17T07:45:07.590Z,23.00
2023-06-17T07:47:10.829Z,23.00
2023-06-17T07:49:13.831Z,23.10
2023-06-17T07:51:16.733Z,23.20
2023-06-17T07:53:19.802Z,23.40
2023-06-17T07:55:22.654Z,23.50
2023-06-17T07:57:25.656Z,23.70
2023-06-17T07:59:28.560Z,23.80
2023-06-17T08:01:34.525Z,23.90
2023-06-17T08:03:37.571Z,24.10
2023-06-17T08:05:40.484Z,24.20
2023-06-17T08:07:43.275Z,24.20
2023-06-17T08:09:46.062Z,24.30
2023-06-17T08:11:49.012Z,24.30
2023-06-17T08:13:51.986Z,24.30
2023-06-17T08:15:54.815Z,24.40
2023-06-17T08:17:59.202Z,24.50
2023-06-17T08:20:02.114Z,24.60
2023-06-17T08:22:05.368Z,24.70
2023-06-17T08:24:26.950Z,24.80
2023-06-17T08:26:30.124Z,24.90
2023-06-17T08:28:33.059Z,25.00
2023-06-17T08:30:36.067Z,25.10
2023-06-17T08:32:38.972Z,25.30
2023-06-17T08:34:47.381Z,25.40
2023-06-17T08:36:53.752Z,25.50
2023-06-17T08:38:58.878Z,25.60
2023-06-17T08:41:01.675Z,25.70
2023-06-17T08:43:06.072Z,25.70
2023-06-17T08:45:09.991Z,25.70
2023-06-17T08:47:16.613Z,25.80
2023-06-17T08:49:19.929Z,25.90
2023-06-17T08:51:24.323Z,25.90
2023-06-17T08:53:28.213Z,25.90
2023-06-17T08:55:34.090Z,25.90
2023-06-17T08:57:40.245Z,25.90
2023-06-17T08:59:43.525Z,26.00
2023-06-17T09:01:47.074Z,26.10
2023-06-17T09:03:53.079Z,26.30
2023-06-17T09:05:55.861Z,26.60
2023-06-17T09:08:00.745Z,26.70
2023-06-17T09:10:08.312Z,26.90
2023-06-17T09:12:11.384Z,27.00
2023-06-17T09:14:14.200Z,27.10
2023-06-17T09:16:17.046Z,27.10
2023-06-17T09:18:22.306Z,27.10
2023-06-17T09:20:25.754Z,27.20
2023-06-17T09:22:29.002Z,27.10
2023-06-17T09:24:33.294Z,26.90
2023-06-17T09:26:41.029Z,27.00
2023-06-17T09:28:46.861Z,27.10
2023-06-17T09:30:57.232Z,27.20
2023-06-17T09:33:00.156Z,27.30
2023-06-17T09:35:03.017Z,27.40
2023-06-17T09:37:07.576Z,27.10
2023-06-17T09:39:12.049Z,26.90
2023-06-17T09:41:19.152Z,26.80
2023-06-17T09:43:28.021Z,26.80
2023-06-17T09:45:32.611Z,26.90
2023-06-17T09:47:38.031Z,26.90
2023-06-17T09:49:44.755Z,26.70
2023-06-17T09:51:48.492Z,26.20
2023-06-17T09:53:53.182Z,26.00
2023-06-17T09:55:58.432Z,26.00
2023-06-17T09:58:04.722Z,25.90
2023-06-17T10:00:11.347Z,26.20
2023-06-17T10:02:16.695Z,26.50
2023-06-17T10:04:19.658Z,26.50
2023-06-17T10:06:23.528Z,26.50
2023-06-17T10:08:26.917Z,26.40
2023-06-17T10:10:30.431Z,26.30
2023-06-17T10:12:35.091Z,26.20
2023-06-17T10:14:41.552Z,26.40
2023-06-17T10:16:48.950Z,26.60
2023-06-17T10:18:53.708Z,26.70
2023-06-17T10:20:58.956Z,26.90
2023-06-17T10:23:04.799Z,27.10
2023-06-17T10:25:10.761Z,27.00
2023-06-17T10:27:13.722Z,27.10
2023-06-17T10:29:16.823Z,27.20
2023-06-17T10:31:27.678Z,27.10
2023-06-17T10:33:31.439Z,27.30
2023-06-17T10:35:41.498Z,27.10
2023-06-17T10:37:48.372Z,27.10
2023-06-17T10:39:54.324Z,27.30
2023-06-17T10:42:01.019Z,27.50
2023-06-17T10:44:26.051Z,27.40
2023-06-17T10:46:34.179Z,27.40
2023-06-17T10:48:37.526Z,27.50
2023-06-17T10:50:40.482Z,27.70
2023-06-17T10:52:43.497Z,28.00
2023-06-17T10:54:51.408Z,28.40
2023-06-17T10:56:54.237Z,28.50
2023-06-17T10:58:57.124Z,28.60
2023-06-17T11:01:04.116Z,28.50
2023-06-17T11:03:10.464Z,28.20
2023-06-17T11:05:13.718Z,28.30
2023-06-17T11:07:16.789Z,28.50
2023-06-17T11:09:19.592Z,28.70
2023-06-17T11:11:22.414Z,28.80
2023-06-17T11:13:25.175Z,29.10
2023-06-17T11:15:30.038Z,28.90
2023-06-17T11:17:32.924Z,28.90
2023-06-17T11:19:37.140Z,28.90
2023-06-17T11:21:39.876Z,28.50
2023-06-17T11:23:44.826Z,28.40
2023-06-17T11:25:48.170Z,28.60
2023-06-17T11:27:51.314Z,28.70
2023-06-17T11:29:54.286Z,29.00
2023-06-17T11:31:59.942Z,29.40
2023-06-17T11:34:03.464Z,29.70
2023-06-17T11:36:10.954Z,30.10
2023-06-17T11:38:14.234Z,30.10
2023-06-17T11:40:18.539Z,29.70
2023-06-17T11:42:21.556Z,29.60
2023-06-17T11:44:24.372Z,29.60
2023-06-17T11:46:28.067Z,29.30
2023-06-17T11:48:31.308Z,29.20
2023-06-17T11:50:34.672Z,29.20
2023-06-17T11:52:39.194Z,28.90
2023-06-17T11:54:49.637Z,28.90
2023-06-17T11:56:52.758Z,28.90
2023-06-17T11:58:55.758Z,28.90
2023-06-17T12:01:01.585Z,28.90
2023-06-17T12:03:05.707Z,28.80
2023-06-17T12:05:10.564Z,28.50
2023-06-17T12:07:13.915Z,28.60
2023-06-17T12:09:17.997Z,28.90
2023-06-17T12:11:26.877Z,29.00
2023-06-17T12:13:39.585Z,29.20
2023-06-17T12:15:42.516Z,29.30
2023-06-17T12:17:47.001Z,29.40
2023-06-17T12:19:50.192Z,29.60
2023-06-17T12:21:53.386Z,29.70
2023-06-17T12:23:56.753Z,30.00
2023-06-17T12:26:00.948Z,30.30
2023-06-17T12:28:04.024Z,30.20
2023-06-17T12:30:08.251Z,30.40
2023-06-17T12:32:11.145Z,30.30
2023-06-17T12:34:13.937Z,30.50
2023-06-17T12:36:17.669Z,30.60
2023-06-17T12:38:21.165Z,30.60
2023-06-17T12:40:24.380Z,30.90
2023-06-17T12:42:28.618Z,31.00
2023-06-17T12:44:31.423Z,30.80
2023-06-17T12:46:36.331Z,30.90
2023-06-17T12:48:39.327Z,31.00
2023-06-17T12:50:42.497Z,30.80
2023-06-17T12:52:45.678Z,30.80
2023-06-17T12:54:57.917Z,30.70
2023-06-17T12:57:00.688Z,30.70
2023-06-17T12:59:05.762Z,30.80
2023-06-17T13:01:08.587Z,30.90
2023-06-17T13:03:13.785Z,31.10
2023-06-17T13:05:17.616Z,31.10
2023-06-17T13:07:20.776Z,31.10
2023-06-17T13:09:23.985Z,31.00
2023-06-17T13:11:27.169Z,30.80
2023-06-17T13:13:31.689Z,30.70
2023-06-17T13:15:35.891Z,30.70
2023-06-17T13:17:38.811Z,30.70
2023-06-17T13:19:43.089Z,30.50
2023-06-17T13:21:46.415Z,30.50
2023-06-17T13:23:49.507Z,30.50
2023-06-17T13:25:52.332Z,30.40
2023-06-17T13:27:55.629Z,30.60
2023-06-17T13:29:58.648Z,30.70
2023-06-17T13:32:02.759Z,30.70
2023-06-17T13:34:06.729Z,30.50
2023-06-17T13:36:10.268Z,30.30
2023-06-17T13:38:13.070Z,30.10
2023-06-17T13:40:16.200Z,30.40
2023-06-17T13:42:19.038Z,30.70
2023-06-17T13:44:21.824Z,31.10
2023-06-17T13:46:24.631Z,31.30
2023-06-17T13:48:31.591Z,31.40
2023-06-17T13:50:35.926Z,31.30
2023-06-17T13:52:40.414Z,31.40
2023-06-17T13:54:43.214Z,31.40
2023-06-17T13:56:46.920Z,31.10
2023-06-17T13:58:49.731Z,30.80
2023-06-17T14:00:52.498Z,30.60
2023-06-17T14:02:55.344Z,30.50
2023-06-17T14:05:01.879Z,30.40
2023-06-17T14:07:04.994Z,30.60
2023-06-17T14:09:08.435Z,30.90
2023-06-17T14:11:11.698Z,30.90
2023-06-17T14:13:15.096Z,30.90
2023-06-17T14:15:18.054Z,30.80
2023-06-17T14:17:20.943Z,31.00
2023-06-17T14:19:23.703Z,31.20
2023-06-17T14:21:31.600Z,31.50
2023-06-17T14:23:34.507Z,32.00
2023-06-17T14:25:37.506Z,32.10
2023-06-17T14:27:40.852Z,32.10
2023-06-17T14:29:43.664Z,32.20
2023-06-17T14:31:46.429Z,32.00
2023-06-17T14:33:49.237Z,32.00
2023-06-17T14:35:52.254Z,32.10
2023-06-17T14:37:56.626Z,32.30
2023-06-17T14:39:59.559Z,32.30
2023-06-17T14:42:02.562Z,32.30
2023-06-17T14:44:05.639Z,32.30
2023-06-17T14:46:09.748Z,32.30
2023-06-17T14:48:12.766Z,32.20
2023-06-17T14:50:15.699Z,32.00
2023-06-17T14:52:19.105Z,31.90
2023-06-17T14:54:23.261Z,32.10
2023-06-17T14:56:28.887Z,32.40
2023-06-17T14:58:31.827Z,32.40
2023-06-17T15:00:34.678Z,32.30
2023-06-17T15:02:55.548Z,32.30
2023-06-17T15:04:58.641Z,32.50
2023-06-17T15:07:01.505Z,32.70
2023-06-17T15:09:27.887Z,32.90
2023-06-17T15:11:30.673Z,33.20
2023-06-17T15:13:33.487Z,33.20
2023-06-17T15:15:36.371Z,33.20
2023-06-17T15:17:40.269Z,32.90
2023-06-17T15:19:43.134Z,32.70
2023-06-17T15:21:46.857Z,32.60
2023-06-17T15:23:49.635Z,32.80
2023-06-17T15:25:54.470Z,32.70
2023-06-17T15:27:57.412Z,32.80
2023-06-17T15:30:00.547Z,32.70
2023-06-17T15:32:03.376Z,32.90
2023-06-17T15:34:06.447Z,33.40
2023-06-17T15:36:09.267Z,33.60
2023-06-17T15:38:12.066Z,33.30
2023-06-17T15:40:14.848Z,32.90
2023-06-17T15:42:19.067Z,32.80
2023-06-17T15:44:22.676Z,32.80
2023-06-17T15:46:25.866Z,32.80
2023-06-17T15:48:29.701Z,32.70
2023-06-17T15:50:32.962Z,33.10
2023-06-17T15:52:35.778Z,33.20
2023-06-17T15:54:38.692Z,33.70
2023-06-17T15:56:41.759Z,33.40
2023-06-17T15:58:46.002Z,33.70
2023-06-17T16:00:48.804Z,33.80
2023-06-17T16:02:51.844Z,33.70
2023-06-17T16:04:54.842Z,33.50
2023-06-17T16:06:58.256Z,33.70
2023-06-17T16:09:01.248Z,34.10
2023-06-17T16:11:05.285Z,34.10
2023-06-17T16:13:08.780Z,33.90
2023-06-17T16:15:13.235Z,33.80
2023-06-17T16:17:16.201Z,33.70
2023-06-17T16:19:26.254Z,33.60
2023-06-17T16:21:30.326Z,33.50
2023-06-17T16:23:33.355Z,33.40
2023-06-17T16:25:49.867Z,33.40
2023-06-17T16:27:57.033Z,33.10
2023-06-17T16:29:59.984Z,33.20
2023-06-17T16:32:04.497Z,33.40
2023-06-17T16:34:07.922Z,33.60
2023-06-17T16:36:10.751Z,33.90
2023-06-17T16:38:13.568Z,33.80
2023-06-17T16:40:16.587Z,33.70
2023-06-17T16:42:19.894Z,33.50
2023-06-17T16:44:22.860Z,33.10
2023-06-17T16:46:26.035Z,33.10
2023-06-17T16:48:30.240Z,33.30
2023-06-17T16:50:33.043Z,33.10
2023-06-17T16:52:36.082Z,32.90
2023-06-17T16:54:40.430Z,32.90
2023-06-17T16:56:43.299Z,33.20
2023-06-17T16:58:46.111Z,33.30
2023-06-17T17:00:49.166Z,33.50
2023-06-17T17:02:52.034Z,33.70
2023-06-17T17:04:56.222Z,33.40
2023-06-17T17:07:01.754Z,33.30
2023-06-17T17:09:04.766Z,33.10
2023-06-17T17:11:07.885Z,33.20
2023-06-17T17:13:10.788Z,33.00
2023-06-17T17:15:13.616Z,32.90
2023-06-17T17:17:16.516Z,32.80
2023-06-17T17:19:19.528Z,32.80
2023-06-17T17:21:23.700Z,32.90
2023-06-17T17:23:26.529Z,32.80
2023-06-17T17:25:30.089Z,32.80
2023-06-17T17:27:32.969Z,32.80
2023-06-17T17:29:36.275Z,32.90
2023-06-17T17:31:39.242Z,32.90
2023-06-17T17:33:44.213Z,32.80
2023-06-17T17:35:47.608Z,32.70
2023-06-17T17:37:51.813Z,32.30
2023-06-17T17:39:54.627Z,31.70
2023-06-17T17:41:57.458Z,31.10
2023-06-17T17:44:00.244Z,30.60
2023-06-17T17:46:04.345Z,30.10
2023-06-17T17:48:07.270Z,29.70
2023-06-17T17:50:10.907Z,29.50
2023-06-17T17:52:13.676Z,29.30
2023-06-17T17:54:18.034Z,29.10
2023-06-17T17:56:20.839Z,28.90
2023-06-17T17:58:23.619Z,28.80
2023-06-17T18:00:26.474Z,28.70
2023-06-17T18:02:29.300Z,28.50
2023-06-17T18:04:32.145Z,28.50
2023-06-17T18:06:34.954Z,28.40
2023-06-17T18:08:37.810Z,28.30
2023-06-17T18:10:44.260Z,28.20
2023-06-17T18:12:47.221Z,28.20
2023-06-17T18:14:50.027Z,28.10
2023-06-17T18:16:52.939Z,28.00
2023-06-17T18:18:55.831Z,27.90
2023-06-17T18:20:58.777Z,27.80
2023-06-17T18:23:01.737Z,27.80
2023-06-17T18:25:04.671Z,27.70
2023-06-17T18:27:09.208Z,27.70
2023-06-17T18:29:12.731Z,27.70
2023-06-17T18:31:15.652Z,27.60
2023-06-17T18:33:18.576Z,27.60
2023-06-17T18:35:21.507Z,27.50
2023-06-17T18:37:24.379Z,27.40
2023-06-17T18:39:27.174Z,27.40
2023-06-17T18:41:31.905Z,27.30
2023-06-17T18:43:37.507Z,27.20
2023-06-17T18:45:40.602Z,27.10
2023-06-17T18:47:43.480Z,27.00
2023-06-17T18:49:47.621Z,26.90
2023-06-17T18:51:52.957Z,26.70
2023-06-17T18:53:55.796Z,26.60
2023-06-17T18:55:59.440Z,26.50
2023-06-17T18:58:02.775Z,26.30
2023-06-17T19:00:08.492Z,26.20
2023-06-17T19:02:11.630Z,26.00
2023-06-17T19:04:14.593Z,25.90
2023-06-17T19:06:17.809Z,25.80
2023-06-17T19:08:20.661Z,25.60
2023-06-17T19:10:23.916Z,25.50
2023-06-17T19:12:28.062Z,25.30
2023-06-17T19:14:31.542Z,25.20
2023-06-17T19:16:36.305Z,25.10
2023-06-17T19:18:39.094Z,25.00
2023-06-17T19:20:42.603Z,24.90
2023-06-17T19:22:45.498Z,24.70
2023-06-17T19:24:48.322Z,24.60
2023-06-17T19:26:51.205Z,24.50
2023-06-17T19:28:56.853Z,24.40
2023-06-17T19:30:59.701Z,24.40
2023-06-17T19:33:03.956Z,24.40
2023-06-17T19:35:07.770Z,24.30
2023-06-17T19:37:10.537Z,24.20
2023-06-17T19:39:13.316Z,24.10
2023-06-17T19:41:16.052Z,24.00
2023-06-17T19:43:23.064Z,23.80
2023-06-17T19:45:30.027Z,23.70
2023-06-17T19:47:33.655Z,23.60
2023-06-17T19:49:37.902Z,23.50
2023-06-17T19:51:40.818Z,23.30
2023-06-17T19:53:43.576Z,23.20
2023-06-17T19:55:47.049Z,23.10
2023-06-17T19:57:49.805Z,23.00
2023-06-17T19:59:52.633Z,22.90
2023-06-17T20:01:55.541Z,22.80
2023-06-17T20:03:58.501Z,22.70
2023-06-17T20:06:03.132Z,22.60
2023-06-17T20:08:06.269Z,22.50
2023-06-17T20:10:10.045Z,22.40
2023-06-17T20:12:15.821Z,22.30
2023-06-17T20:14:18.687Z,22.20
2023-06-17T20:16:21.671Z,22.10
2023-06-17T20:18:24.653Z,22.00
2023-06-17T20:20:28.576Z,21.90
2023-06-17T20:22:32.708Z,21.90
2023-06-17T20:24:35.618Z,21.80
2023-06-17T20:26:39.526Z,21.70
2023-06-17T20:28:42.462Z,21.70
2023-06-17T20:30:45.264Z,21.60
2023-06-17T20:32:48.550Z,21.50
2023-06-17T20:34:54.152Z,21.40
2023-06-17T20:36:56.912Z,21.30
2023-06-17T20:39:01.414Z,21.30
2023-06-17T20:41:04.219Z,21.30
2023-06-17T20:43:09.042Z,21.20
2023-06-17T20:45:12.266Z,21.10
2023-06-17T20:47:15.047Z,21.00
2023-06-17T20:49:17.867Z,20.80
2023-06-17T20:51:20.690Z,20.80
2023-06-17T20:53:23.484Z,20.80
2023-06-17T20:55:29.645Z,20.70
2023-06-17T20:57:32.444Z,20.70
2023-06-17T20:59:35.233Z,20.70
2023-06-17T21:01:38.011Z,20.70
2023-06-17T21:03:40.816Z,20.60
2023-06-17T21:05:43.695Z,20.60
2023-06-17T21:07:46.804Z,20.50
2023-06-17T21:09:50.413Z,20.50
2023-06-17T21:11:54.690Z,20.40
2023-06-17T21:13:57.572Z,20.40
2023-06-17T21:16:00.348Z,20.30
2023-06-17T21:18:03.215Z,20.30
2023-06-17T21:20:09.809Z,20.30
2023-06-17T21:22:13.000Z,20.20
2023-06-17T21:24:15.941Z,20.20
2023-06-17T21:26:18.813Z,20.10
2023-06-17T21:28:22.961Z,20.00
2023-06-17T21:30:25.943Z,20.00
2023-06-17T21:32:28.754Z,19.90
2023-06-17T21:34:31.553Z,19.80
2023-06-17T21:36:34.343Z,19.70
2023-06-17T21:38:37.124Z,19.60
2023-06-17T21:40:39.927Z,19.60
2023-06-17T21:42:42.762Z,19.50
2023-06-17T21:44:46.910Z,19.50
2023-06-17T21:46:49.699Z,19.40
2023-06-17T21:48:52.588Z,19.40
2023-06-17T21:50:55.549Z,19.40
2023-06-17T21:52:58.380Z,19.40
2023-06-17T21:55:01.317Z,19.40
2023-06-17T21:57:04.549Z,19.40
2023-06-17T21:59:07.775Z,19.40
2023-06-17T22:01:11.921Z,19.40
2023-06-17T22:03:14.842Z,19.30
2023-06-17T22:05:17.625Z,19.30
2023-06-17T22:07:20.401Z,19.20
2023-06-17T22:09:23.339Z,19.10
2023-06-17T22:11:26.169Z,19.10
2023-06-17T22:13:29.209Z,19.00
2023-06-17T22:15:32.393Z,19.00
2023-06-17T22:17:36.578Z,18.90
2023-06-17T22:19:39.371Z,18.90
2023-06-17T22:21:42.201Z,18.90
2023-06-17T22:23:45.074Z,18.90
2023-06-17T22:25:47.929Z,18.80
2023-06-17T22:27:50.724Z,18.80
2023-06-17T22:29:53.656Z,18.80
2023-06-17T22:31:56.449Z,18.80
2023-06-17T22:34:00.697Z,18.70
2023-06-17T22:36:04.601Z,18.70
2023-06-17T22:38:07.375Z,18.60
2023-06-17T22:40:10.957Z,18.60
2023-06-17T22:42:13.725Z,18.50
2023-06-17T22:44:16.738Z,18.40
2023-06-17T22:46:19.620Z,18.40
2023-06-17T22:48:22.439Z,18.30
2023-06-17T22:50:28.356Z,18.20
2023-06-17T22:52:31.318Z,18.20
2023-06-17T22:54:34.075Z,18.20
2023-06-17T22:56:36.884Z,18.10
2023-06-17T22:58:39.712Z,18.10
2023-06-17T23:00:42.562Z,18.10
2023-06-17T23:02:45.676Z,18.10
2023-06-17T23:04:48.767Z,18.10
2023-06-17T23:06:52.910Z,18.10
2023-06-17T23:08:56.047Z,18.10
2023-06-17T23:10:59.407Z,18.10
2023-06-17T23:13:02.210Z,18.10
2023-06-17T23:15:05.538Z,18.00
2023-06-17T23:17:08.448Z,18.00
2023-06-17T23:19:14.212Z,18.00
2023-06-17T23:21:17.253Z,18.00
2023-06-17T23:23:21.814Z,18.00
2023-06-17T23:25:27.820Z,18.00
2023-06-17T23:27:31.777Z,17.90
2023-06-17T23:29:37.527Z,17.90
2023-06-17T23:31:40.468Z,17.80
2023-06-17T23:33:43.948Z,17.80
2023-06-17T23:35:46.738Z,17.80
2023-06-17T23:37:49.569Z,17.70
2023-06-17T23:39:53.858Z,17.70
2023-06-17T23:41:56.611Z,17.70
2023-06-17T23:43:59.417Z,17.70
2023-06-17T23:46:04.170Z,17.60
2023-06-17T23:48:07.183Z,17.60
2023-06-17T23:50:10.593Z,17.50
2023-06-17T23:52:14.160Z,17.40
2023-06-17T23:54:16.959Z,17.40
2023-06-17T23:56:21.296Z,17.40
2023-06-17T23:58:26.028Z,17.30
